Time;durP1;ratioP1;P1;durP2;ratioP2;P2;SDS_P1;SDS_P2;PMS_P1;PMS_P2;Temp;Humidity;BMP_temperature;BMP_pressure;BME280_temperature;BME280_humidity;BME280_pressure;Samples;Min_cycle;Max_cycle;Signal;HPM_P1;HPM_P2
2022/08/01 00:00:01;;;;;;;2.38;2.17;;;;;;;19.29;67.36;95952.53;5039097;28;20017;-62
2022/08/01 00:02:27;;;;;;;4.63;2.03;;;;;;;19.18;65.01;95958.38;5045754;28;20025;-62
2022/08/01 00:04:56;;;;;;;2.00;1.90;;;;;;;19.16;64.87;95949.72;5043782;28;20163;-62
2022/08/01 00:07:21;;;;;;;2.10;1.95;;;;;;;19.18;63.94;95956.53;5041891;28;20033;-62
2022/08/01 00:09:47;;;;;;;2.50;2.30;;;;;;;19.17;65.00;95951.38;5048717;28;20025;-62
2022/08/01 00:12:12;;;;;;;5.88;2.25;;;;;;;19.15;64.79;95954.25;5044376;28;20477;-62
2022/08/01 00:14:37;;;;;;;2.70;2.10;;;;;;;19.16;64.57;95952.41;5041144;28;20416;-62
2022/08/01 00:17:03;;;;;;;2.17;2.08;;;;;;;19.10;65.30;95945.97;5041917;28;20018;-62
2022/08/01 00:19:28;;;;;;;3.63;2.22;;;;;;;19.11;64.03;95944.94;5046997;28;20135;-62
2022/08/01 00:21:54;;;;;;;2.50;2.30;;;;;;;19.05;64.50;95951.06;5046289;28;20033;-62
2022/08/01 00:24:19;;;;;;;2.00;1.90;;;;;;;19.08;64.50;95949.88;5043492;28;20017;-62
2022/08/01 00:26:44;;;;;;;1.95;1.83;;;;;;;19.03;64.81;95955.75;5045371;28;20543;-62
2022/08/01 00:29:10;;;;;;;2.80;2.08;;;;;;;19.00;65.71;95951.63;5043262;28;20036;-62
2022/08/01 00:31:35;;;;;;;2.05;1.95;;;;;;;18.98;65.48;95948.31;5038368;28;20017;-63
2022/08/01 00:34:00;;;;;;;2.20;2.00;;;;;;;18.96;66.80;95952.16;5047245;28;20503;-62
2022/08/01 00:36:26;;;;;;;2.30;2.20;;;;;;;18.88;68.72;95951.25;5043676;28;20040;-62
2022/08/01 00:38:51;;;;;;;3.70;2.17;;;;;;;18.80;67.28;95954.03;5043898;28;20140;-62
2022/08/01 00:41:17;;;;;;;2.40;2.13;;;;;;;18.80;67.85;95955.91;5046303;28;20103;-62
2022/08/01 00:43:43;;;;;;;2.60;2.00;;;;;;;18.74;67.60;95954.78;5047245;28;20410;-62
2022/08/01 00:46:08;;;;;;;2.72;2.53;;;;;;;18.76;68.71;95950.09;5047889;28;20048;-62
2022/08/01 00:48:34;;;;;;;2.38;2.00;;;;;;;18.77;67.08;95951.75;5043922;28;20017;-62
2022/08/01 00:50:59;;;;;;;2.10;2.00;;;;;;;18.82;66.12;95956.53;5044750;28;20034;-62
2022/08/01 00:53:25;;;;;;;1.90;1.80;;;;;;;18.84;65.81;95947.31;5041054;28;20013;-61
2022/08/01 00:55:50;;;;;;;2.65;2.42;;;;;;;18.78;65.86;95953.41;5043458;28;20064;-62
2022/08/01 00:58:16;;;;;;;2.40;2.30;;;;;;;18.79;66.21;95960.38;5047745;28;20053;-62
2022/08/01 01:00:42;;;;;;;2.95;2.20;;;;;;;18.70;66.93;95953.53;5044073;28;20021;-62
2022/08/01 01:03:08;;;;;;;3.15;2.10;;;;;;;18.60;67.01;95949.28;5041330;28;20525;-62
2022/08/01 01:05:48;;;;;;;2.28;2.17;;;;;;;18.59;67.69;95955.63;5047339;28;20575;-62
2022/08/01 01:08:22;;;;;;;2.70;2.17;;;;;;;18.65;67.03;95954.06;5043087;28;20041;-62
2022/08/01 01:11:04;;;;;;;2.28;2.17;;;;;;;18.67;67.15;95957.38;5047740;28;20040;-62
2022/08/01 01:13:45;;;;;;;3.55;2.33;;;;;;;18.67;67.30;95954.72;5039706;28;20115;-62
2022/08/01 01:16:17;;;;;;;2.95;1.88;;;;;;;18.64;68.57;95957.75;5046796;28;20033;-62
2022/08/01 01:18:56;;;;;;;2.15;2.05;;;;;;;18.60;67.91;95951.16;5041547;28;20079;-62
2022/08/01 01:21:21;;;;;;;3.92;1.90;;;;;;;18.59;67.58;95952.16;5037193;28;20068;-62
2022/08/01 01:24:14;;;;;;;2.30;2.20;;;;;;;18.60;69.09;95956.47;5039626;28;20574;-63
2022/08/01 01:26:49;;;;;;;2.60;2.25;;;;;;;18.63;67.63;95957.94;5040758;28;20047;-63
2022/08/01 01:29:21;;;;;;;1.98;1.88;;;;;;;18.61;68.06;95952.78;5044504;28;20385;-62
2022/08/01 01:31:54;;;;;;;2.42;2.30;;;;;;;18.53;70.31;95951.06;5041280;28;20040;-62
2022/08/01 01:34:23;;;;;;;2.05;1.95;;;;;;;18.50;68.91;95947.91;5046019;28;20017;-61
2022/08/01 01:36:51;;;;;;;2.15;2.00;;;;;;;18.44;69.00;95946.81;5040307;28;20511;-61
2022/08/01 01:39:18;;;;;;;2.22;2.03;;;;;;;18.37;71.33;95943.25;5045925;28;20037;-61
2022/08/01 01:41:46;;;;;;;2.20;2.10;;;;;;;18.32;71.11;95944.63;5045136;28;20120;-62
2022/08/01 01:44:13;;;;;;;2.20;2.10;;;;;;;18.33;69.79;95940.97;5035678;28;20022;-62
2022/08/01 01:46:40;;;;;;;5.70;2.03;;;;;;;18.35;69.84;95935.47;5041041;28;20492;-62
2022/08/01 01:49:10;;;;;;;2.25;2.13;;;;;;;18.36;69.23;95944.25;5040657;28;20447;-62
2022/08/01 01:51:37;;;;;;;3.53;2.47;;;;;;;18.34;69.50;95947.09;5043663;28;20061;-62
2022/08/01 01:54:05;;;;;;;2.60;2.40;;;;;;;18.29;69.60;95947.69;5049305;28;20082;-62
2022/08/01 01:56:31;;;;;;;2.60;2.30;;;;;;;18.31;68.30;95945.66;5051360;28;20032;-62
2022/08/01 01:58:59;;;;;;;2.20;2.00;;;;;;;18.27;69.06;95935.53;5047801;28;20431;-62
2022/08/01 02:01:28;;;;;;;2.15;1.80;;;;;;;18.20;69.42;95943.44;5047953;28;20021;-62
2022/08/01 02:03:56;;;;;;;2.47;2.28;;;;;;;18.13;69.87;95943.38;5044255;28;20040;-62
2022/08/01 02:06:25;;;;;;;1.92;1.83;;;;;;;18.06;69.59;95944.28;5045622;28;20034;-62
2022/08/01 02:08:53;;;;;;;2.20;2.10;;;;;;;17.98;70.78;95940.63;5045158;28;20069;-62
2022/08/01 02:11:23;;;;;;;1.77;1.67;;;;;;;17.99;70.57;95942.28;5047429;28;20480;-62
2022/08/01 02:13:58;;;;;;;2.47;2.13;;;;;;;18.01;70.80;95936.78;5046284;28;20032;-62
2022/08/01 02:16:29;;;;;;;2.40;2.20;;;;;;;18.00;72.19;95940.47;5043723;28;20473;-62
2022/08/01 02:18:55;;;;;;;1.83;1.73;;;;;;;18.00;70.36;95937.81;5047468;28;20123;-62
2022/08/01 02:21:38;;;;;;;2.42;2.20;;;;;;;18.02;70.27;95938.47;5044420;28;20344;-62
2022/08/01 02:24:16;;;;;;;2.22;2.03;;;;;;;18.02;72.60;95938.47;5046452;28;20458;-62
2022/08/01 02:26:46;;;;;;;2.53;2.33;;;;;;;18.01;71.27;95936.78;5039858;28;20025;-62
2022/08/01 02:29:16;;;;;;;2.20;2.10;;;;;;;17.93;70.88;95937.69;5050672;28;20480;-62
2022/08/01 02:31:46;;;;;;;2.13;2.03;;;;;;;17.94;71.03;95935.88;5045722;28;20033;-62
2022/08/01 02:34:16;;;;;;;2.22;2.13;;;;;;;17.92;71.11;95938.72;5040582;28;20032;-62
2022/08/01 02:36:44;;;;;;;2.25;2.15;;;;;;;17.94;70.74;95941.19;5044003;28;20122;-62
2022/08/01 02:39:14;;;;;;;2.22;2.10;;;;;;;17.88;70.42;95937.41;5046488;28;20151;-62
2022/08/01 02:41:43;;;;;;;2.17;2.08;;;;;;;17.89;70.30;95933.75;5050718;28;20043;-62
2022/08/01 02:44:14;;;;;;;2.20;2.10;;;;;;;17.87;70.30;95935.78;5044797;28;20411;-62
2022/08/01 02:46:47;;;;;;;2.50;2.40;;;;;;;17.88;70.88;95932.09;5045051;28;20412;-62
2022/08/01 02:49:14;;;;;;;2.10;2.00;;;;;;;17.89;70.70;95931.91;5043275;28;20025;-62
2022/08/01 02:51:40;;;;;;;3.00;2.05;;;;;;;17.76;70.85;95927.19;5045023;28;20025;-62
2022/08/01 02:54:08;;;;;;;2.58;2.38;;;;;;;17.75;70.76;95925.53;5045222;28;20017;-62
2022/08/01 02:56:34;;;;;;;2.65;2.40;;;;;;;17.73;70.81;95930.22;5049128;28;20028;-62
2022/08/01 02:59:14;;;;;;;2.45;2.35;;;;;;;17.66;71.16;95921.31;5051422;28;20131;-62
2022/08/01 03:01:42;;;;;;;5.35;2.00;;;;;;;17.69;71.21;95926.28;5050986;28;20059;-62
2022/08/01 03:04:09;;;;;;;2.35;2.20;;;;;;;17.63;72.43;95929.69;5050729;28;20025;-62
2022/08/01 03:06:36;;;;;;;2.75;1.98;;;;;;;17.59;71.40;95929.19;5051212;28;20032;-62
2022/08/01 03:09:03;;;;;;;2.60;2.20;;;;;;;17.56;72.63;95924.25;5051670;28;20110;-62
2022/08/01 03:11:30;;;;;;;2.33;2.15;;;;;;;17.57;72.31;95930.38;5033552;28;20032;-62
2022/08/01 03:13:58;;;;;;;2.05;1.95;;;;;;;17.55;73.49;95921.75;5049967;28;20477;-61
2022/08/01 03:16:26;;;;;;;2.38;2.20;;;;;;;17.52;73.35;95935.41;5050597;28;20044;-61
2022/08/01 03:18:55;;;;;;;2.25;2.10;;;;;;;17.52;72.64;95932.75;5051115;28;20094;-62
2022/08/01 03:21:23;;;;;;;2.67;2.47;;;;;;;17.56;72.35;95934.03;5050448;28;20082;-62
2022/08/01 03:23:53;;;;;;;2.60;2.40;;;;;;;17.58;71.74;95929.41;5050627;28;20115;-62
2022/08/01 03:26:19;;;;;;;2.35;2.22;;;;;;;17.52;73.08;95927.44;5050851;28;20055;-62
2022/08/01 03:28:47;;;;;;;2.78;2.40;;;;;;;17.43;72.31;95930.16;5038026;28;20404;-62
2022/08/01 03:31:14;;;;;;;2.63;2.38;;;;;;;17.40;72.43;95927.03;5050990;28;20481;-62
2022/08/01 03:33:39;;;;;;;2.40;2.20;;;;;;;17.34;73.28;95928.56;5050935;28;20033;-62
2022/08/01 03:36:11;;;;;;;3.53;2.17;;;;;;;17.30;72.59;95928.13;5051155;28;20021;-62
2022/08/01 03:38:40;;;;;;;2.72;2.53;;;;;;;17.27;72.11;95928.47;5051124;28;20025;-62
2022/08/01 03:41:23;;;;;;;2.65;2.25;;;;;;;17.27;73.01;95931.13;5050698;28;20083;-61
2022/08/01 03:43:57;;;;;;;3.17;2.30;;;;;;;17.31;72.20;95929.78;5050841;28;20098;-62
2022/08/01 03:46:29;;;;;;;2.50;2.30;;;;;;;17.34;72.06;95928.56;5037367;28;20021;-61
2022/08/01 03:48:58;;;;;;;3.65;2.50;;;;;;;17.31;71.90;95928.94;5050558;28;20112;-62
2022/08/01 03:51:24;;;;;;;2.08;1.98;;;;;;;17.32;72.04;95933.25;5050577;28;20025;-62
2022/08/01 03:53:54;;;;;;;2.42;2.13;;;;;;;17.31;72.20;95935.09;5050590;28;20069;-62
2022/08/01 03:56:21;;;;;;;3.13;2.40;;;;;;;17.24;73.73;95928.00;5049107;28;20108;-62
2022/08/01 03:58:47;;;;;;;2.42;2.22;;;;;;;17.17;72.76;95930.53;5050447;28;20404;-62
2022/08/01 04:01:14;;;;;;;2.40;2.30;;;;;;;17.11;72.74;95926.75;5050238;28;20024;-62
2022/08/01 04:03:40;;;;;;;2.53;2.00;;;;;;;17.17;73.07;95941.16;5050776;28;20074;-62
2022/08/01 04:06:08;;;;;;;4.15;2.28;;;;;;;17.20;73.11;95940.00;5049885;28;20039;-62
2022/08/01 04:08:38;;;;;;;2.50;2.30;;;;;;;17.18;73.88;95929.53;5049833;28;20509;-62
2022/08/01 04:11:04;;;;;;;2.70;2.15;;;;;;;17.17;73.43;95931.38;5050341;28;20035;-62
2022/08/01 04:13:31;;;;;;;2.35;2.15;;;;;;;17.10;73.00;95932.25;5049673;28;20140;-61
2022/08/01 04:15:56;;;;;;;3.35;2.63;;;;;;;17.14;72.92;95937.06;5049300;28;20472;-62
2022/08/01 04:18:21;;;;;;;2.42;2.33;;;;;;;17.21;72.85;95936.34;5049900;28;20104;-62
2022/08/01 04:20:47;;;;;;;2.40;2.00;;;;;;;17.16;73.81;95934.19;5050125;28;20112;-61
2022/08/01 04:23:16;;;;;;;2.78;2.53;;;;;;;17.09;73.04;95944.72;5049750;28;20439;-62
2022/08/01 04:25:44;;;;;;;2.40;2.30;;;;;;;17.04;74.71;95947.09;5049999;28;20423;-62
2022/08/01 04:28:16;;;;;;;2.85;2.28;;;;;;;16.99;74.91;95944.13;5049777;28;20039;-62
2022/08/01 04:30:43;;;;;;;2.25;2.08;;;;;;;16.95;76.78;95953.44;5049409;28;20037;-62
2022/08/01 04:33:11;;;;;;;4.82;2.67;;;;;;;16.89;74.49;95945.13;5050203;28;20154;-62
2022/08/01 04:35:40;;;;;;;2.10;2.00;;;;;;;16.90;75.06;95951.28;5050093;28;20074;-62
2022/08/01 04:38:08;;;;;;;2.53;2.40;;;;;;;16.91;75.84;95952.94;5049944;28;20032;-62
2022/08/01 04:40:36;;;;;;;3.25;3.00;;;;;;;16.93;75.19;95950.13;5049596;28;20040;-62
2022/08/01 04:43:02;;;;;;;2.88;2.63;;;;;;;16.93;76.57;95952.78;5048633;28;20411;-62
2022/08/01 04:45:28;;;;;;;2.88;2.63;;;;;;;16.86;76.07;95952.66;5049517;28;20102;-62
2022/08/01 04:47:56;;;;;;;4.13;2.75;;;;;;;16.84;76.52;95958.13;5049608;28;20040;-62
2022/08/01 04:50:22;;;;;;;3.42;2.40;;;;;;;16.78;75.33;95950.88;5049866;28;20029;-62
2022/08/01 04:52:48;;;;;;;3.35;2.83;;;;;;;16.84;75.76;95955.47;5049871;28;20508;-62
2022/08/01 04:55:13;;;;;;;4.28;2.58;;;;;;;16.86;75.92;95958.78;5047065;28;20021;-62
2022/08/01 04:57:44;;;;;;;2.38;2.28;;;;;;;16.86;75.92;95952.66;5048946;28;20055;-62
2022/08/01 05:00:11;;;;;;;2.83;2.45;;;;;;;16.89;74.95;95958.44;5048768;28;20485;-62
2022/08/01 05:02:36;;;;;;;2.50;2.40;;;;;;;16.94;74.04;95963.22;5037591;28;20032;-62
2022/08/01 05:05:02;;;;;;;4.00;2.45;;;;;;;16.96;73.63;95960.41;5049587;28;20025;-62
2022/08/01 05:07:27;;;;;;;2.60;2.40;;;;;;;17.01;73.69;95968.72;5043475;28;20032;-61
2022/08/01 05:09:53;;;;;;;3.55;2.90;;;;;;;17.02;74.11;95965.91;5047683;28;20024;-62
2022/08/01 05:12:18;;;;;;;4.35;2.50;;;;;;;17.06;74.39;95965.53;5048826;28;20419;-61
2022/08/01 05:14:45;;;;;;;2.60;2.40;;;;;;;17.01;75.87;95963.41;5046871;28;20036;-62
2022/08/01 05:17:11;;;;;;;2.72;2.53;;;;;;;16.95;75.55;95964.06;5047365;28;20602;-62
2022/08/01 05:19:37;;;;;;;3.10;2.90;;;;;;;16.97;76.75;95962.06;5044957;28;20053;-62
2022/08/01 05:22:05;;;;;;;2.65;2.55;;;;;;;16.98;76.45;95964.56;5049063;28;20021;-62
2022/08/01 05:24:32;;;;;;;2.50;2.30;;;;;;;17.02;75.62;95968.56;5047227;28;20021;-62
2022/08/01 05:26:58;;;;;;;4.57;2.53;;;;;;;17.04;74.86;95957.72;5050321;28;20395;-62
2022/08/01 05:29:24;;;;;;;3.33;2.92;;;;;;;17.06;75.14;95963.69;5051650;28;20029;-62
2022/08/01 05:31:50;;;;;;;3.40;3.20;;;;;;;17.09;75.28;95959.88;5051831;28;20037;-63
2022/08/01 05:34:16;;;;;;;3.03;2.83;;;;;;;17.09;76.31;95958.00;5051576;28;20033;-62
2022/08/01 05:36:41;;;;;;;2.72;2.63;;;;;;;17.10;77.47;95957.00;5052229;28;20049;-62
2022/08/01 05:39:07;;;;;;;2.97;2.85;;;;;;;17.24;76.74;95952.78;5051484;28;20059;-62
2022/08/01 05:41:32;;;;;;;4.78;2.55;;;;;;;17.37;75.75;95952.19;5047894;28;20041;-64
2022/08/01 05:43:58;;;;;;;2.85;2.50;;;;;;;17.54;74.18;95958.19;5042787;28;20030;-62
2022/08/01 05:46:23;;;;;;;2.75;2.53;;;;;;;17.73;73.61;95961.38;5051684;28;20029;-62
2022/08/01 05:48:49;;;;;;;3.05;2.78;;;;;;;17.88;73.02;95958.72;5052688;28;20036;-62
2022/08/01 05:51:14;;;;;;;4.15;2.78;;;;;;;18.03;72.24;95966.75;5052883;28;20555;-62
2022/08/01 05:53:39;;;;;;;2.63;2.53;;;;;;;18.19;71.39;95960.44;5052863;28;20112;-62
2022/08/01 05:56:05;;;;;;;2.67;2.47;;;;;;;18.33;70.27;95964.94;5052487;28;20029;-63
2022/08/01 05:58:31;;;;;;;4.80;2.53;;;;;;;18.55;68.64;95966.84;5052580;28;20079;-63
2022/08/01 06:00:57;;;;;;;2.30;2.10;;;;;;;18.68;68.42;95958.19;5052464;28;20090;-62
2022/08/01 06:03:23;;;;;;;5.10;2.90;;;;;;;18.81;68.38;95962.88;5052563;28;20109;-62
2022/08/01 06:05:48;;;;;;;4.57;2.55;;;;;;;18.93;67.73;95968.56;5052743;28;20037;-62
2022/08/01 06:08:13;;;;;;;2.85;2.50;;;;;;;19.08;67.35;95964.00;5052279;28;20035;-62
2022/08/01 06:10:39;;;;;;;2.95;2.50;;;;;;;19.25;67.06;95963.78;5052324;28;20103;-62
2022/08/01 06:13:04;;;;;;;5.80;2.42;;;;;;;19.39;66.38;95970.91;5052454;28;20067;-62
2022/08/01 06:15:31;;;;;;;5.47;2.17;;;;;;;19.51;65.89;95978.41;5052111;28;20025;-61
2022/08/01 06:17:56;;;;;;;2.15;2.05;;;;;;;19.63;66.00;95970.69;5051208;28;20025;-62
2022/08/01 06:20:22;;;;;;;4.03;2.38;;;;;;;19.76;66.32;95971.63;5052008;28;20044;-62
2022/08/01 06:22:47;;;;;;;2.78;2.20;;;;;;;19.89;64.85;95962.91;5052519;28;20036;-62
2022/08/01 06:25:12;;;;;;;2.60;2.40;;;;;;;20.12;64.91;95964.53;5051844;28;20464;-62
2022/08/01 06:27:38;;;;;;;2.70;2.13;;;;;;;20.37;63.75;95965.91;5051858;28;20026;-62
2022/08/01 06:30:07;;;;;;;2.30;2.20;;;;;;;20.65;62.34;95973.03;5051930;28;20599;-63
2022/08/01 06:32:33;;;;;;;2.13;2.03;;;;;;;20.93;61.57;95970.31;5051706;28;20020;-62
2022/08/01 06:34:58;;;;;;;2.30;2.05;;;;;;;21.18;59.95;95965.25;5051694;28;20033;-62
2022/08/01 06:37:28;;;;;;;2.90;2.08;;;;;;;21.43;58.30;95962.00;5051755;28;20032;-63
2022/08/01 06:39:54;;;;;;;2.22;2.03;;;;;;;21.67;57.35;95970.50;5051771;28;20029;-62
2022/08/01 06:42:19;;;;;;;3.15;2.13;;;;;;;21.81;56.95;95975.88;5052038;28;20103;-63
2022/08/01 06:44:44;;;;;;;2.10;2.00;;;;;;;22.01;56.35;95967.81;5051947;28;20110;-63
2022/08/01 06:47:10;;;;;;;5.85;2.40;;;;;;;22.29;55.60;95961.38;5051515;28;20017;-62
2022/08/01 06:49:35;;;;;;;2.55;2.35;;;;;;;22.55;54.40;95965.88;5051455;28;20071;-62
2022/08/01 06:52:01;;;;;;;4.22;2.35;;;;;;;22.85;53.19;95962.66;5051627;28;20021;-63
2022/08/01 06:54:26;;;;;;;2.83;2.60;;;;;;;23.20;51.79;95968.69;5051523;28;20025;-62
2022/08/01 06:56:51;;;;;;;2.80;2.03;;;;;;;23.52;50.87;95961.50;5051833;28;20435;-62
2022/08/01 06:59:17;;;;;;;2.40;2.20;;;;;;;23.86;49.56;95961.25;5050532;28;20048;-62
2022/08/01 07:01:42;;;;;;;2.13;2.03;;;;;;;24.22;48.40;95962.41;5049952;28;20064;-62
2022/08/01 07:04:07;;;;;;;2.13;2.03;;;;;;;24.61;47.43;95959.50;5051301;28;20025;-62
2022/08/01 07:06:33;;;;;;;5.07;2.00;;;;;;;24.68;46.90;95970.22;5051073;28;20021;-62
2022/08/01 07:09:00;;;;;;;3.15;2.13;;;;;;;24.99;46.32;95961.16;5050842;28;20423;-62
2022/08/01 07:11:26;;;;;;;2.00;1.90;;;;;;;25.46;45.01;95960.50;5049667;28;20104;-63
2022/08/01 07:13:51;;;;;;;3.58;2.28;;;;;;;25.82;44.99;95962.47;5050054;28;20028;-62
2022/08/01 07:16:17;;;;;;;2.53;1.98;;;;;;;26.15;43.64;95958.38;5044975;28;20447;-62
2022/08/01 07:18:43;;;;;;;2.22;2.03;;;;;;;26.35;42.29;95957.25;5050430;28;20508;-62
2022/08/01 07:21:08;;;;;;;1.77;1.67;;;;;;;26.50;41.85;95962.97;5050739;28;20044;-63
2022/08/01 07:23:34;;;;;;;3.30;2.00;;;;;;;26.41;42.55;95959.00;5050805;28;20032;-61
2022/08/01 07:26:01;;;;;;;2.65;1.85;;;;;;;26.60;41.75;95955.09;5050641;28;20032;-62
2022/08/01 07:28:27;;;;;;;2.38;1.60;;;;;;;27.28;39.58;95953.72;5050547;28;20369;-62
2022/08/01 07:30:53;;;;;;;2.15;1.77;;;;;;;27.83;38.48;95951.47;5050976;28;20025;-62
2022/08/01 07:33:18;;;;;;;1.95;1.73;;;;;;;28.02;39.36;95955.56;5049368;28;20111;-61
2022/08/01 07:35:44;;;;;;;1.63;1.50;;;;;;;28.01;36.32;95958.50;5050701;28;20068;-61
2022/08/01 07:38:09;;;;;;;1.58;1.48;;;;;;;28.28;37.12;95958.66;5050942;28;20107;-62
2022/08/01 07:40:34;;;;;;;1.42;1.38;;;;;;;28.50;37.15;95954.34;5049211;28;20088;-61
2022/08/01 07:43:00;;;;;;;2.13;1.40;;;;;;;28.63;36.62;95955.88;5049273;28;20090;-61
2022/08/01 07:45:26;;;;;;;1.70;1.60;;;;;;;28.72;36.66;95957.88;5048424;28;20484;-61
2022/08/01 07:47:52;;;;;;;1.90;1.80;;;;;;;28.89;36.24;95957.03;5039147;28;20100;-63
2022/08/01 07:50:18;;;;;;;1.90;1.70;;;;;;;29.43;34.82;95944.66;5048375;28;20037;-63
2022/08/01 07:52:43;;;;;;;1.27;1.27;;;;;;;29.59;34.16;95953.75;5048605;28;20029;-62
2022/08/01 07:55:10;;;;;;;1.95;1.70;;;;;;;29.80;33.28;95945.78;5039049;28;20029;-63
2022/08/01 07:57:36;;;;;;;1.77;1.67;;;;;;;29.85;32.96;95953.97;5047534;28;20036;-62
2022/08/01 08:00:05;;;;;;;2.47;1.85;;;;;;;29.59;33.35;95940.19;5047749;28;20092;-63
2022/08/01 08:02:31;;;;;;;2.00;1.75;;;;;;;29.78;32.45;95939.81;5038638;28;20391;-63
2022/08/01 08:04:56;;;;;;;1.90;1.77;;;;;;;29.81;33.36;95942.00;5047876;28;20025;-63
2022/08/01 08:07:21;;;;;;;1.98;1.40;;;;;;;30.09;32.76;95938.16;5047525;28;20013;-63
2022/08/01 08:09:47;;;;;;;1.58;1.52;;;;;;;30.23;32.44;95941.25;5045732;28;20488;-62
2022/08/01 08:12:12;;;;;;;1.85;1.70;;;;;;;30.49;31.74;95943.28;5036672;28;20123;-61
2022/08/01 08:14:38;;;;;;;3.95;1.50;;;;;;;30.49;30.87;95935.13;5047467;28;20029;-62
2022/08/01 08:17:04;;;;;;;2.58;1.55;;;;;;;30.63;30.70;95938.25;5037064;28;20028;-62
2022/08/01 08:19:32;;;;;;;1.80;1.70;;;;;;;30.88;31.12;95929.34;5048365;28;20079;-63
2022/08/01 08:21:58;;;;;;;2.00;1.75;;;;;;;31.04;30.25;95932.13;5047625;28;20060;-62
2022/08/01 08:24:23;;;;;;;1.60;1.50;;;;;;;30.95;30.81;95931.81;5046501;28;20607;-62
2022/08/01 08:26:52;;;;;;;3.30;1.90;;;;;;;30.97;30.43;95935.91;5041646;28;20040;-62
2022/08/01 08:29:19;;;;;;;2.78;1.33;;;;;;;31.23;30.79;95927.03;5044382;28;20028;-63
2022/08/01 08:31:44;;;;;;;2.63;1.75;;;;;;;31.06;30.48;95930.78;5044953;28;20091;-61
2022/08/01 08:34:10;;;;;;;2.35;1.80;;;;;;;31.14;30.49;95927.53;5046971;28;20021;-61
2022/08/01 08:36:35;;;;;;;2.97;1.50;;;;;;;31.31;30.31;95934.69;5046846;28;20455;-62
2022/08/01 08:39:01;;;;;;;2.80;1.85;;;;;;;31.44;30.94;95927.91;5046665;28;20105;-61
2022/08/01 08:41:26;;;;;;;1.83;1.60;;;;;;;31.57;30.53;95930.06;5045478;28;20106;-61
2022/08/01 08:43:53;;;;;;;1.73;1.63;;;;;;;32.22;28.99;95928.72;5031393;28;20059;-61
2022/08/01 08:46:19;;;;;;;4.25;1.60;;;;;;;32.21;28.97;95929.81;5046001;28;20029;-61
2022/08/01 08:48:44;;;;;;;2.83;1.77;;;;;;;32.17;29.38;95927.91;5040071;28;20091;-61
2022/08/01 08:51:11;;;;;;;1.60;1.50;;;;;;;32.21;28.86;95929.81;5046818;28;20104;-62
2022/08/01 08:53:43;;;;;;;1.75;1.45;;;;;;;32.44;27.87;95928.41;5045884;28;20055;-62
2022/08/01 08:56:11;;;;;;;1.45;1.35;;;;;;;32.05;28.52;95928.19;5031071;28;20306;-62
2022/08/01 08:58:38;;;;;;;2.42;1.42;;;;;;;32.65;28.00;95924.81;5040389;28;20034;-61
2022/08/01 09:01:08;;;;;;;2.83;1.30;;;;;;;32.69;27.94;95921.22;5059015;28;20488;-62
2022/08/01 09:03:34;;;;;;;2.40;1.58;;;;;;;32.35;28.52;95921.91;5050136;28;20020;-62
2022/08/01 09:05:59;;;;;;;3.83;1.52;;;;;;;32.55;27.68;95917.50;5045580;28;20033;-62
2022/08/01 09:08:25;;;;;;;1.75;1.42;;;;;;;32.39;27.40;95919.44;5050623;28;20021;-62
2022/08/01 09:10:50;;;;;;;1.52;1.42;;;;;;;32.38;27.19;95912.34;5043327;28;20029;-62
2022/08/01 09:13:16;;;;;;;1.60;1.45;;;;;;;32.49;27.77;95916.69;5047646;28;20026;-62
2022/08/01 09:15:53;;;;;;;3.47;1.58;;;;;;;32.57;27.32;95913.38;5043331;28;20036;-62
2022/08/01 09:18:40;;;;;;;1.60;1.45;;;;;;;33.26;26.28;95911.97;5047025;28;20534;-62
2022/08/01 09:21:05;;;;;;;1.45;1.35;;;;;;;33.26;26.52;95910.06;5051256;28;20021;-62
2022/08/01 09:23:38;;;;;;;1.52;1.42;;;;;;;32.56;27.40;95911.75;5045730;28;20021;-62
2022/08/01 09:26:04;;;;;;;1.73;1.48;;;;;;;32.91;26.81;95914.63;5047267;28;20026;-61
2022/08/01 09:28:30;;;;;;;1.52;1.38;;;;;;;32.78;26.78;95915.22;5038963;28;20141;-62
2022/08/01 09:31:05;;;;;;;1.58;1.42;;;;;;;32.97;26.61;95909.97;5046162;28;20035;-62
2022/08/01 09:34:00;;;;;;;1.50;1.40;;;;;;;33.42;26.71;95918.16;5046072;28;20083;-62
2022/08/01 09:36:42;;;;;;;1.70;1.60;;;;;;;33.80;25.45;95917.63;5043344;28;20025;-62
2022/08/01 09:39:13;;;;;;;1.50;1.40;;;;;;;33.15;25.79;95905.78;5051079;28;20117;-61
2022/08/01 09:41:39;;;;;;;1.40;1.30;;;;;;;33.14;26.70;95913.16;5048981;28;20069;-62
2022/08/01 09:44:04;;;;;;;2.17;1.63;;;;;;;33.37;24.96;95912.72;5051558;28;20024;-62
2022/08/01 09:46:30;;;;;;;4.07;1.30;;;;;;;33.15;25.34;95912.06;5049961;28;20100;-62
2022/08/01 09:49:05;;;;;;;2.90;1.40;;;;;;;33.17;26.06;95913.69;5051446;28;20037;-63
2022/08/01 09:51:37;;;;;;;1.45;1.35;;;;;;;33.39;25.39;95905.91;5049115;28;20032;-62
2022/08/01 09:54:05;;;;;;;1.75;1.42;;;;;;;33.29;25.98;95901.31;5046158;28;20025;-62
2022/08/01 09:56:45;;;;;;;2.65;1.33;;;;;;;33.97;24.93;95903.56;5051433;28;20608;-62
2022/08/01 09:59:11;;;;;;;3.47;1.40;;;;;;;34.12;25.46;95897.16;5049136;28;20052;-62
2022/08/01 10:01:47;;;;;;;1.42;1.27;;;;;;;34.26;25.13;95897.28;5047063;28;20025;-62
2022/08/01 10:04:19;;;;;;;1.33;1.23;;;;;;;34.24;24.61;95894.03;5051252;28;20391;-62
2022/08/01 10:06:52;;;;;;;1.38;1.30;;;;;;;33.86;25.09;95891.91;5047869;28;20033;-63
2022/08/01 10:09:28;;;;;;;1.40;1.30;;;;;;;34.29;23.85;95888.53;5050837;28;20032;-63
2022/08/01 10:11:55;;;;;;;1.13;1.08;;;;;;;34.25;23.96;95874.63;5049653;28;20037;-63
2022/08/01 10:14:24;;;;;;;2.50;1.30;;;;;;;34.52;23.80;95877.91;5048939;28;20055;-62
2022/08/01 10:16:52;;;;;;;2.15;1.30;;;;;;;34.51;24.63;95879.81;5051783;28;20036;-63
2022/08/01 10:19:18;;;;;;;2.28;1.55;;;;;;;34.77;23.40;95875.97;5050679;28;20033;-62
2022/08/01 10:21:47;;;;;;;3.50;1.40;;;;;;;34.51;23.75;95871.63;5049536;28;20123;-62
2022/08/01 10:24:13;;;;;;;1.70;1.30;;;;;;;34.41;23.47;95863.53;5040145;28;20025;-63
2022/08/01 10:26:40;;;;;;;4.25;1.55;;;;;;;34.28;24.26;95865.03;5046217;28;20033;-63
2022/08/01 10:29:07;;;;;;;1.35;1.25;;;;;;;34.83;23.76;95858.38;5050508;28;20039;-63
2022/08/01 10:31:32;;;;;;;1.40;1.30;;;;;;;34.80;22.79;95857.03;5050982;28;20063;-63
2022/08/01 10:33:59;;;;;;;5.90;1.83;;;;;;;34.89;23.41;95859.13;5044548;28;20052;-63
2022/08/01 10:36:25;;;;;;;1.38;1.20;;;;;;;35.20;23.13;95861.44;5050655;28;20555;-64
2022/08/01 10:38:52;;;;;;;1.25;1.20;;;;;;;35.47;21.84;95846.22;5039079;28;20030;-63
2022/08/01 10:41:18;;;;;;;1.95;1.10;;;;;;;35.31;22.61;95851.13;5048213;28;20218;-65
2022/08/01 10:43:44;;;;;;;1.20;1.20;;;;;;;35.17;23.31;95840.13;5046625;28;20037;-64
2022/08/01 10:46:10;;;;;;;1.38;1.30;;;;;;;35.48;22.27;95845.94;5044836;28;20028;-66
2022/08/01 10:48:40;;;;;;;2.13;1.00;;;;;;;35.30;22.19;95841.31;5035769;28;20040;-63
2022/08/01 10:51:07;;;;;;;1.60;1.20;;;;;;;35.58;21.47;95833.22;5047222;28;20044;-64
2022/08/01 10:53:33;;;;;;;1.33;1.20;;;;;;;36.18;21.34;95835.19;5034772;28;20110;-63
2022/08/01 10:56:07;;;;;;;1.83;1.40;;;;;;;35.69;21.11;95835.47;5045855;28;20083;-63
2022/08/01 10:58:37;;;;;;;2.63;1.40;;;;;;;35.70;20.97;95834.38;5046183;28;20045;-63
2022/08/01 11:01:21;;;;;;;1.23;1.20;;;;;;;35.84;22.09;95833.59;5043639;28;20017;-63
2022/08/01 11:04:02;;;;;;;;;;;;;;;35.75;20.27;95829.94;5046813;28;20082;-63
2022/08/01 11:06:33;;;;;;;1.17;1.17;;;;;;;35.88;20.62;95833.81;5040029;28;19913;-63
2022/08/01 11:09:02;;;;;;;1.00;1.00;;;;;;;36.06;21.00;95826.63;5050159;28;20037;-63
2022/08/01 11:11:27;;;;;;;1.27;1.20;;;;;;;36.31;20.64;95830.81;5043768;28;20021;-64
2022/08/01 11:14:03;;;;;;;1.30;1.20;;;;;;;36.03;20.93;95824.50;5041505;28;20090;-63
2022/08/01 11:16:31;;;;;;;2.72;1.30;;;;;;;36.28;20.70;95824.00;5049013;28;20048;-64
2022/08/01 11:18:57;;;;;;;1.30;1.27;;;;;;;36.23;21.40;95821.38;5033100;28;20543;-63
2022/08/01 11:21:59;;;;;;;1.83;1.20;;;;;;;36.51;20.14;95807.66;5031473;28;20030;-63
2022/08/01 11:24:46;;;;;;;1.15;1.10;;;;;;;36.22;20.63;95811.53;5037038;28;20029;-62
2022/08/01 11:27:20;;;;;;;5.88;1.25;;;;;;;36.01;20.29;95813.81;5033771;28;20091;-63
2022/08/01 11:30:07;;;;;;;1.30;1.20;;;;;;;36.20;20.53;95810.19;5039212;28;20117;-62
2022/08/01 11:32:33;;;;;;;1.50;1.40;;;;;;;36.31;21.20;95803.41;5041845;28;20859;-63
2022/08/01 11:34:58;;;;;;;2.20;1.35;;;;;;;36.22;20.93;95802.50;5040684;28;20033;-63
2022/08/01 11:37:28;;;;;;;1.37;1.30;;;;;;;36.58;20.78;95796.28;5040174;28;20021;-63